createdAt,value
2018-05-01T00:01:32.059Z,96912.67
2018-05-01T00:03:59.566Z,96904.95
2018-05-01T00:06:27.058Z,96897.55
2018-05-01T00:08:54.560Z,96896.48
2018-05-01T00:11:22.046Z,96895.61
2018-05-01T00:13:49.551Z,96888.77
2018-05-01T00:16:17.032Z,96890.68
2018-05-01T00:18:44.543Z,96887.22
2018-05-01T00:21:12.030Z,96884.18
2018-05-01T00:23:39.542Z,96885.44
2018-05-01T00:26:07.060Z,96881.41
2018-05-01T00:28:34.554Z,96882.67
2018-05-01T00:31:02.073Z,96882.31
2018-05-01T00:33:29.582Z,96881.50
2018-05-01T00:35:57.098Z,96877.55
2018-05-01T00:38:24.585Z,96877.77
2018-05-01T00:40:52.096Z,96882.49
2018-05-01T00:43:19.578Z,96874.52
2018-05-01T00:45:47.090Z,96877.41
2018-05-01T00:48:14.582Z,96875.92
2018-05-01T00:50:42.107Z,96877.13
2018-05-01T00:53:09.597Z,96879.13
2018-05-01T00:55:37.109Z,96881.38
2018-05-01T00:58:04.598Z,96872.48
2018-05-01T01:00:32.097Z,96867.55
2018-05-01T01:02:59.582Z,96872.64
2018-05-01T01:05:27.089Z,96871.69
2018-05-01T01:07:54.573Z,96871.52
2018-05-01T01:10:22.090Z,96870.67
2018-05-01T01:12:49.578Z,96869.30
2018-05-01T01:15:17.105Z,96870.42
2018-05-01T01:17:44.599Z,96871.16
2018-05-01T01:20:12.113Z,96867.79
2018-05-01T01:22:39.602Z,96862.88
2018-05-01T01:25:07.096Z,96859.46
2018-05-01T01:27:34.618Z,96857.95
2018-05-01T01:30:02.115Z,96861.37
2018-05-01T01:32:29.626Z,96866.03
2018-05-01T01:34:57.532Z,96870.30
2018-05-01T01:37:24.510Z,96875.83
2018-05-01T01:39:51.463Z,96874.08
2018-05-01T01:42:18.434Z,96868.95
2018-05-01T01:44:45.389Z,96877.30
2018-05-01T01:47:12.357Z,96873.61
2018-05-01T01:49:39.310Z,96881.75
2018-05-01T01:52:06.285Z,96879.39
2018-05-01T01:54:33.233Z,96875.73
2018-05-01T01:57:00.211Z,96878.47
2018-05-01T01:59:27.159Z,96883.27
2018-05-01T02:01:54.132Z,96881.88
2018-05-01T02:04:21.085Z,96884.91
2018-05-01T02:06:48.063Z,96886.25
2018-05-01T02:09:15.009Z,96890.06
2018-05-01T02:11:41.982Z,96888.36
2018-05-01T02:14:08.941Z,96887.09
2018-05-01T02:16:35.930Z,96877.52
2018-05-01T02:19:02.885Z,96882.14
2018-05-01T02:21:29.839Z,96878.88
2018-05-01T02:23:56.812Z,96879.70
2018-05-01T02:26:23.758Z,96879.68
2018-05-01T02:28:50.933Z,96875.27
2018-05-01T02:31:17.881Z,96878.97
2018-05-01T02:33:44.845Z,96877.19
2018-05-01T02:36:11.793Z,96877.55
2018-05-01T02:38:38.779Z,96868.59
2018-05-01T02:41:05.740Z,96878.89
2018-05-01T02:43:32.725Z,96882.98
2018-05-01T02:45:59.681Z,96882.66
2018-05-01T02:48:26.658Z,96883.92
2018-05-01T02:50:53.616Z,96886.91
2018-05-01T02:53:20.595Z,96891.06
2018-05-01T02:55:47.562Z,96896.82
2018-05-01T02:58:14.544Z,96901.80
2018-05-01T03:00:41.492Z,96896.67
2018-05-01T03:03:08.467Z,96896.02
2018-05-01T03:05:35.429Z,96898.98
2018-05-01T03:08:02.403Z,96904.90
2018-05-01T03:10:29.383Z,96896.90
2018-05-01T03:12:56.366Z,96896.90
2018-05-01T03:15:23.318Z,96897.01
2018-05-01T03:17:50.281Z,96896.98
2018-05-01T03:20:17.249Z,96893.92
2018-05-01T03:22:44.198Z,96896.46
2018-05-01T03:25:11.173Z,96889.45
2018-05-01T03:27:38.120Z,96881.05
2018-05-01T03:30:05.095Z,96884.85
2018-05-01T03:32:32.037Z,96888.63
2018-05-01T03:34:59.015Z,96884.91
2018-05-01T03:37:25.970Z,96891.05
2018-05-01T03:39:52.953Z,96896.52
2018-05-01T03:42:19.906Z,96898.16
2018-05-01T03:44:46.878Z,96897.72
2018-05-01T03:47:13.829Z,96900.13
2018-05-01T03:49:40.811Z,96901.03
2018-05-01T03:52:07.772Z,96897.89
2018-05-01T03:54:34.758Z,96898.85
2018-05-01T03:57:01.705Z,96900.13
2018-05-01T03:59:28.674Z,96899.61
2018-05-01T04:01:55.623Z,96898.35
2018-05-01T04:04:22.598Z,96901.67
2018-05-01T04:06:49.552Z,96901.64
2018-05-01T04:09:17.382Z,96906.41
2018-05-01T04:11:44.358Z,96908.13
2018-05-01T04:14:11.316Z,96906.49
2018-05-01T04:16:38.295Z,96905.17
2018-05-01T04:19:05.247Z,96916.48
2018-05-01T04:21:32.257Z,96920.29
2018-05-01T04:23:59.203Z,96922.70
2018-05-01T04:26:26.170Z,96928.43
2018-05-01T04:28:53.286Z,96930.41
2018-05-01T04:31:20.260Z,96932.30
2018-05-01T04:33:47.216Z,96929.09
2018-05-01T04:36:14.194Z,96938.11
2018-05-01T04:38:41.146Z,96946.92
2018-05-01T04:41:08.108Z,96944.72
2018-05-01T04:43:35.053Z,96948.25
2018-05-01T04:46:02.037Z,96952.25
2018-05-01T04:48:28.988Z,96960.06
2018-05-01T04:50:55.964Z,96956.05
2018-05-01T04:53:22.921Z,96954.63
2018-05-01T04:55:49.898Z,96961.84
2018-05-01T04:58:16.857Z,96963.70
2018-05-01T05:00:43.828Z,96968.39
2018-05-01T05:03:10.783Z,96971.08
2018-05-01T05:05:37.750Z,96971.12
2018-05-01T05:08:04.734Z,96968.61
2018-05-01T05:10:31.697Z,96980.83
2018-05-01T05:12:58.675Z,96983.77
2018-05-01T05:15:25.684Z,96994.95
2018-05-01T05:17:52.649Z,96996.56
2018-05-01T05:20:19.595Z,97003.63
2018-05-01T05:22:46.580Z,96999.81
2018-05-01T05:25:13.529Z,97013.22
2018-05-01T05:27:40.506Z,97017.81
2018-05-01T05:30:07.454Z,97020.17
2018-05-01T05:32:34.436Z,97027.34
2018-05-01T05:35:01.386Z,97022.39
2018-05-01T05:37:28.365Z,97020.09
2018-05-01T05:39:55.308Z,97018.34
2018-05-01T05:42:22.282Z,97020.78
2018-05-01T05:44:49.230Z,97022.18
2018-05-01T05:47:16.197Z,97022.75
2018-05-01T05:49:43.145Z,97022.84
2018-05-01T05:52:10.114Z,97028.71
2018-05-01T05:54:37.064Z,97024.93
2018-05-01T05:57:04.058Z,97030.25
2018-05-01T05:59:31.015Z,97024.63
2018-05-01T06:01:57.961Z,97021.75
2018-05-01T06:04:24.955Z,97022.03
2018-05-01T06:06:51.933Z,97025.98
2018-05-01T06:09:18.911Z,97028.59
2018-05-01T06:11:45.861Z,97032.30
2018-05-01T06:14:12.839Z,97023.19
2018-05-01T06:16:39.795Z,97016.46
2018-05-01T06:19:06.765Z,97026.61
2018-05-01T06:21:33.724Z,97026.11
2018-05-01T06:24:00.715Z,97028.02
2018-05-01T06:26:27.669Z,97028.20
2018-05-01T06:28:54.650Z,97035.48
2018-05-01T06:31:21.699Z,97027.61
2018-05-01T06:33:48.606Z,97032.09
2018-05-01T06:36:15.558Z,97032.06
2018-05-01T06:38:42.524Z,97023.60
2018-05-01T06:41:09.472Z,97036.34
2018-05-01T06:43:36.451Z,97061.53
2018-05-01T06:46:03.406Z,97059.08
2018-05-01T06:48:30.383Z,97069.44
2018-05-01T06:50:57.366Z,97077.00
2018-05-01T06:53:24.322Z,97078.34
2018-05-01T06:55:51.310Z,97080.20
2018-05-01T06:58:18.265Z,97082.02
2018-05-01T07:00:45.239Z,97083.61
2018-05-01T07:03:12.198Z,97084.49
2018-05-01T07:05:39.178Z,97078.41
2018-05-01T07:08:06.134Z,97077.64
2018-05-01T07:10:34.245Z,97073.37
2018-05-01T07:13:01.197Z,97070.61
2018-05-01T07:15:28.171Z,97072.70
2018-05-01T07:17:55.123Z,97079.77
2018-05-01T07:20:22.093Z,97079.38
2018-05-01T07:22:49.053Z,97080.56
2018-05-01T07:25:16.051Z,97086.02
2018-05-01T07:27:43.016Z,97088.88
2018-05-01T07:30:10.027Z,97088.27
2018-05-01T07:32:36.973Z,97088.01
2018-05-01T07:35:03.952Z,97085.05
2018-05-01T07:37:30.921Z,97091.61
2018-05-01T07:39:58.573Z,97092.63
2018-05-01T07:42:25.523Z,97091.97
2018-05-01T07:44:52.602Z,97091.58
2018-05-01T07:47:19.550Z,97092.65
2018-05-01T07:49:46.516Z,97101.32
2018-05-01T07:52:13.497Z,97102.22
2018-05-01T07:54:40.457Z,97104.99
2018-05-01T07:57:07.439Z,97110.70
2018-05-01T07:59:34.389Z,97109.02
2018-05-01T08:02:01.371Z,97108.37
2018-05-01T08:04:28.324Z,97103.09
2018-05-01T08:06:55.313Z,97107.73
2018-05-01T08:09:22.276Z,97112.75
2018-05-01T08:11:50.752Z,97118.69
2018-05-01T08:14:16.227Z,97123.77
2018-05-01T08:16:43.207Z,97125.03
2018-05-01T08:19:10.161Z,97126.85
2018-05-01T08:21:37.129Z,97138.13
2018-05-01T08:24:04.089Z,97132.91
2018-05-01T08:26:31.064Z,97127.84
2018-05-01T08:28:58.026Z,97119.98
2018-05-01T08:31:24.997Z,97090.88
2018-05-01T08:33:51.953Z,97117.00
2018-05-01T08:36:18.940Z,97111.48
2018-05-01T08:38:45.897Z,97108.61
2018-05-01T08:41:12.882Z,97095.91
2018-05-01T08:43:39.837Z,97081.53
2018-05-01T08:46:06.792Z,97085.34
2018-05-01T08:48:33.764Z,97066.04
2018-05-01T08:51:00.726Z,97062.19
2018-05-01T08:53:27.702Z,97048.05
2018-05-01T08:55:54.655Z,97041.85
2018-05-01T08:58:21.626Z,97051.48
2018-05-01T09:00:48.582Z,97066.67
2018-05-01T09:03:15.556Z,97085.37
2018-05-01T09:05:42.511Z,97101.94
2018-05-01T09:08:09.490Z,97101.53
2018-05-01T09:10:36.452Z,97096.20
2018-05-01T09:13:03.438Z,97097.11
2018-05-01T09:15:30.393Z,97102.63
2018-05-01T09:17:57.489Z,97121.53
2018-05-01T09:20:24.349Z,97135.77
2018-05-01T09:22:51.323Z,97142.81
2018-05-01T09:25:18.270Z,97150.11
2018-05-01T09:27:45.238Z,97144.09
2018-05-01T09:30:12.185Z,97149.31
2018-05-01T09:32:39.162Z,97156.80
2018-05-01T09:35:06.115Z,97150.31
2018-05-01T09:37:33.114Z,97164.05
2018-05-01T09:40:00.070Z,97173.59
2018-05-01T09:42:27.042Z,97185.37
2018-05-01T09:44:54.016Z,97183.25
2018-05-01T09:47:20.965Z,97183.88
2018-05-01T09:49:47.935Z,97189.52
2018-05-01T09:52:15.436Z,97188.52
2018-05-01T09:54:43.054Z,97186.25
2018-05-01T09:57:10.555Z,97187.50
2018-05-01T09:59:38.070Z,97190.78
2018-05-01T10:02:05.571Z,97192.37
2018-05-01T10:04:33.119Z,97189.89
2018-05-01T10:07:00.609Z,97199.44
2018-05-01T10:09:28.126Z,97199.25
2018-05-01T10:11:55.617Z,97197.54
2018-05-01T10:14:23.125Z,97203.04
2018-05-01T10:16:50.614Z,97203.25
2018-05-01T10:19:18.125Z,97191.68
2018-05-01T10:21:45.605Z,97197.72
2018-05-01T10:24:13.113Z,97202.06
2018-05-01T10:26:40.602Z,97203.31
2018-05-01T10:29:08.164Z,97201.34
2018-05-01T10:31:35.655Z,97200.05
2018-05-01T10:34:03.190Z,97194.58
2018-05-01T10:36:30.701Z,97187.67
2018-05-01T10:38:58.243Z,97183.17
2018-05-01T10:41:25.722Z,97186.47
2018-05-01T10:43:53.217Z,97196.61
2018-05-01T10:46:20.742Z,97184.37
2018-05-01T10:48:48.238Z,97192.62
2018-05-01T10:51:15.758Z,97196.22
2018-05-01T10:53:43.290Z,97200.79
2018-05-01T10:56:10.808Z,97206.95
2018-05-01T10:58:38.292Z,97213.50
2018-05-01T11:01:05.801Z,97207.29
2018-05-01T11:03:33.289Z,97200.36
2018-05-01T11:06:00.794Z,97211.55
2018-05-01T11:08:28.289Z,97202.58
2018-05-01T11:10:55.806Z,97211.50
2018-05-01T11:13:23.373Z,97206.52
2018-05-01T11:15:50.902Z,97201.41
2018-05-01T11:18:18.432Z,97204.23
2018-05-01T11:20:45.944Z,97215.10
2018-05-01T11:23:13.440Z,97217.91
2018-05-01T11:25:41.908Z,97222.00
2018-05-01T11:28:09.403Z,97225.66
2018-05-01T11:30:37.087Z,97224.20
2018-05-01T11:33:04.610Z,97229.83
2018-05-01T11:35:32.114Z,97229.43
2018-05-01T11:37:59.635Z,97228.55
2018-05-01T11:40:27.131Z,97217.94
2018-05-01T11:42:54.658Z,97217.62
2018-05-01T11:45:22.154Z,97213.25
2018-05-01T11:47:49.657Z,97215.92
2018-05-01T11:50:17.154Z,97202.13
2018-05-01T11:52:44.671Z,97098.67
2018-05-01T11:55:12.166Z,97212.98
2018-05-01T11:57:39.681Z,97204.54
2018-05-01T12:00:07.170Z,97201.11
2018-05-01T12:02:34.732Z,97201.97
2018-05-01T12:05:02.220Z,97206.20
2018-05-01T12:07:29.746Z,97200.09
2018-05-01T12:09:57.229Z,97203.03
2018-05-01T12:12:24.738Z,97205.94
2018-05-01T12:14:52.223Z,97201.75
2018-05-01T12:17:19.725Z,97200.59
2018-05-01T12:19:47.224Z,97205.84
2018-05-01T12:22:14.732Z,97208.64
2018-05-01T12:24:42.222Z,97207.50
2018-05-01T12:27:09.705Z,97207.86
2018-05-01T12:29:37.218Z,97210.66
2018-05-01T12:32:04.727Z,97193.78
2018-05-01T12:34:32.244Z,97203.30
2018-05-01T12:36:59.807Z,97199.01
2018-05-01T12:39:27.265Z,97197.55
2018-05-01T12:41:54.754Z,97196.77
2018-05-01T12:44:22.270Z,97198.05
2018-05-01T12:46:49.758Z,97187.02
2018-05-01T12:49:17.270Z,97195.02
2018-05-01T12:51:44.768Z,97190.53
2018-05-01T12:54:12.282Z,97193.04
2018-05-01T12:56:39.769Z,97192.19
2018-05-01T12:59:07.307Z,97185.72
2018-05-01T13:01:34.798Z,97189.47
2018-05-01T13:04:02.306Z,97196.89
2018-05-01T13:06:29.808Z,97193.65
2018-05-01T13:08:57.313Z,97190.42
2018-05-01T13:11:24.809Z,97184.62
2018-05-01T13:13:52.326Z,97179.36
2018-05-01T13:16:19.827Z,97172.69
2018-05-01T13:18:47.333Z,97179.67
2018-05-01T13:21:14.886Z,97184.17
2018-05-01T13:23:42.374Z,97175.34
2018-05-01T13:26:09.878Z,97175.45
2018-05-01T13:28:37.357Z,97170.14
2018-05-01T13:31:04.877Z,97177.88
2018-05-01T13:33:32.386Z,97169.75
2018-05-01T13:35:59.898Z,97168.67
2018-05-01T13:38:27.391Z,97160.80
2018-05-01T13:40:54.906Z,97155.09
2018-05-01T13:43:22.398Z,97147.30
2018-05-01T13:45:49.930Z,97145.09
2018-05-01T13:48:17.418Z,97130.16
2018-05-01T13:50:44.926Z,97124.09
2018-05-01T13:53:12.409Z,97123.00
2018-05-01T13:55:39.915Z,97133.02
2018-05-01T13:58:07.407Z,97129.38
2018-05-01T14:00:34.974Z,97119.95
2018-05-01T14:03:02.447Z,97122.53
2018-05-01T14:05:29.950Z,97121.94
2018-05-01T14:07:57.440Z,97125.76
2018-05-01T14:10:24.964Z,97116.70
2018-05-01T14:12:52.457Z,97120.22
2018-05-01T14:15:19.936Z,97120.50
2018-05-01T14:17:47.442Z,96978.44
2018-05-01T14:20:14.930Z,97114.85
2018-05-01T14:22:42.513Z,97117.59
2018-05-01T14:25:10.009Z,97113.80
2018-05-01T14:27:38.421Z,97114.51
2018-05-01T14:30:05.918Z,97118.20
2018-05-01T14:32:33.421Z,97112.11
2018-05-01T14:35:00.911Z,97117.59
2018-05-01T14:37:29.085Z,97113.66
2018-05-01T14:39:56.586Z,97104.63
2018-05-01T14:42:24.118Z,97098.22
2018-05-01T14:44:51.601Z,97103.05
2018-05-01T14:47:19.106Z,97096.68
2018-05-01T14:49:46.591Z,97094.46
2018-05-01T14:52:14.100Z,97100.15
2018-05-01T14:54:41.586Z,97111.26
2018-05-01T14:57:09.094Z,97107.25
2018-05-01T14:59:36.641Z,97105.09
2018-05-01T15:02:04.151Z,97105.93
2018-05-01T15:04:31.634Z,97110.25
2018-05-01T15:06:59.138Z,97095.92
2018-05-01T15:09:26.693Z,97097.47
2018-05-01T15:11:54.194Z,97091.25
2018-05-01T15:14:21.710Z,97091.72
2018-05-01T15:16:49.203Z,97089.76
2018-05-01T15:19:16.792Z,97082.66
2018-05-01T15:21:44.247Z,97088.94
2018-05-01T15:24:11.753Z,97094.66
2018-05-01T15:26:39.237Z,97098.34
2018-05-01T15:29:06.747Z,97104.44
2018-05-01T15:31:34.229Z,97094.64
2018-05-01T15:34:01.747Z,97099.34
2018-05-01T15:36:29.241Z,97101.72
2018-05-01T15:38:56.750Z,97104.55
2018-05-01T15:41:24.246Z,97106.79
2018-05-01T15:43:51.756Z,97082.87
2018-05-01T15:46:19.250Z,97108.39
2018-05-01T15:48:46.765Z,97110.55
2018-05-01T15:51:14.261Z,97102.65
2018-05-01T15:53:41.780Z,97113.22
2018-05-01T15:56:09.275Z,97105.64
2018-05-01T15:58:36.790Z,97109.35
2018-05-01T16:01:04.289Z,97085.70
2018-05-01T16:03:31.813Z,97107.75
2018-05-01T16:05:59.305Z,97103.94
2018-05-01T16:08:26.793Z,97105.08
2018-05-01T16:10:54.294Z,97111.17
2018-05-01T16:13:21.785Z,97105.97
2018-05-01T16:15:49.296Z,97108.78
2018-05-01T16:18:16.800Z,97106.73
2018-05-01T16:20:44.373Z,97099.70
2018-05-01T16:23:11.862Z,97100.67
2018-05-01T16:25:39.381Z,97103.70
2018-05-01T16:28:06.865Z,97097.73
2018-05-01T16:30:34.478Z,97106.42
2018-05-01T16:33:01.973Z,97099.88
2018-05-01T16:35:29.513Z,97112.12
2018-05-01T16:37:57.010Z,97110.68
2018-05-01T16:40:24.603Z,97110.05
2018-05-01T16:42:52.037Z,97108.77
2018-05-01T16:45:19.545Z,97106.72
2018-05-01T16:47:47.036Z,97109.17
2018-05-01T16:50:14.561Z,97104.74
2018-05-01T16:52:42.050Z,97106.08
2018-05-01T16:55:09.567Z,97108.38
2018-05-01T16:57:37.067Z,97110.66
2018-05-01T17:00:04.586Z,97113.25
2018-05-01T17:02:32.077Z,97107.49
2018-05-01T17:04:59.607Z,97112.55
2018-05-01T17:07:27.121Z,97112.75
2018-05-01T17:09:54.618Z,97117.70
2018-05-01T17:12:22.134Z,97120.02
2018-05-01T17:14:49.623Z,97115.92
2018-05-01T17:17:17.140Z,97111.75
2018-05-01T17:19:44.633Z,97117.37
2018-05-01T17:22:12.161Z,97113.86
2018-05-01T17:24:39.672Z,97121.13
2018-05-01T17:27:07.522Z,97117.73
2018-05-01T17:29:35.014Z,97123.84
2018-05-01T17:32:02.533Z,97118.66
2018-05-01T17:34:30.025Z,97119.84
2018-05-01T17:36:57.542Z,97120.84
2018-05-01T17:39:25.038Z,97120.80
2018-05-01T17:41:52.549Z,97129.88
2018-05-01T17:44:20.042Z,97123.72
2018-05-01T17:46:47.545Z,97120.61
2018-05-01T17:49:15.030Z,97122.61
2018-05-01T17:51:42.550Z,97124.03
2018-05-01T17:54:10.034Z,97126.22
2018-05-01T17:56:37.541Z,97126.34
2018-05-01T17:59:06.065Z,97125.71
2018-05-01T18:01:33.558Z,97127.87
2018-05-01T18:04:01.102Z,97132.78
2018-05-01T18:06:28.612Z,97130.39
2018-05-01T18:08:56.689Z,97141.36
2018-05-01T18:11:24.444Z,97145.39
2018-05-01T18:13:52.114Z,97153.84
2018-05-01T18:16:19.755Z,97160.17
2018-05-01T18:18:47.445Z,97160.16
2018-05-01T18:21:15.087Z,97171.89
2018-05-01T18:23:42.870Z,97182.42
2018-05-01T18:26:10.484Z,97164.28
2018-05-01T18:28:38.233Z,97162.00
2018-05-01T18:31:05.884Z,97167.53
2018-05-01T18:33:33.577Z,97168.39
2018-05-01T18:36:01.269Z,97165.49
2018-05-01T18:38:29.056Z,97177.23
2018-05-01T18:40:56.676Z,97179.27
2018-05-01T18:43:24.422Z,97187.20
2018-05-01T18:45:52.071Z,97188.33
2018-05-01T18:48:19.752Z,97186.63
2018-05-01T18:50:47.289Z,97189.55
2018-05-01T18:53:14.807Z,97194.56
2018-05-01T18:55:42.297Z,97202.42
2018-05-01T18:58:09.783Z,97201.72
2018-05-01T19:00:37.299Z,97208.53
2018-05-01T19:03:04.789Z,97208.11
2018-05-01T19:05:32.293Z,97210.52
2018-05-01T19:07:59.790Z,97216.21
2018-05-01T19:10:27.362Z,97214.30
2018-05-01T19:12:54.825Z,97216.39
2018-05-01T19:15:22.342Z,97215.97
2018-05-01T19:17:49.834Z,97221.83
2018-05-01T19:20:17.346Z,97230.21
2018-05-01T19:22:44.838Z,97234.30
2018-05-01T19:25:12.345Z,97235.94
2018-05-01T19:27:39.833Z,97240.17
2018-05-01T19:30:07.336Z,97242.80
2018-05-01T19:32:34.831Z,97234.84
2018-05-01T19:35:02.404Z,97236.39
2018-05-01T19:37:29.895Z,97232.94
2018-05-01T19:39:57.406Z,97233.83
2018-05-01T19:42:25.828Z,97237.36
2018-05-01T19:44:53.351Z,97239.66
2018-05-01T19:47:20.913Z,97240.92
2018-05-01T19:49:48.421Z,97246.69
2018-05-01T19:52:15.934Z,97243.13
2018-05-01T19:54:43.422Z,97240.80
2018-05-01T19:57:11.937Z,97241.65
2018-05-01T19:59:39.434Z,97237.43
2018-05-01T20:02:06.938Z,97237.14
2018-05-01T20:04:34.425Z,97236.09
2018-05-01T20:07:01.936Z,97231.94
2018-05-01T20:09:29.432Z,97235.77
2018-05-01T20:11:56.941Z,97237.66
2018-05-01T20:14:24.428Z,97234.02
2018-05-01T20:16:51.946Z,97236.08
2018-05-01T20:19:19.484Z,97231.55
2018-05-01T20:21:47.002Z,97231.97
2018-05-01T20:24:14.511Z,97233.84
2018-05-01T20:26:42.038Z,97240.30
2018-05-01T20:29:09.520Z,97241.76
2018-05-01T20:31:37.085Z,97232.97
2018-05-01T20:34:04.621Z,97240.30
2018-05-01T20:36:32.801Z,97241.46
2018-05-01T20:39:00.314Z,97235.39
2018-05-01T20:41:27.831Z,97230.98
2018-05-01T20:43:55.313Z,97231.59
2018-05-01T20:46:22.819Z,97231.53
2018-05-01T20:48:50.322Z,97203.42
2018-05-01T20:51:17.805Z,97226.14
2018-05-01T20:53:45.313Z,97228.45
2018-05-01T20:56:12.801Z,97231.64
2018-05-01T20:58:40.314Z,97232.94
2018-05-01T21:01:07.809Z,97228.66
2018-05-01T21:03:35.322Z,97231.55
2018-05-01T21:06:02.809Z,97227.95
2018-05-01T21:08:30.323Z,97226.39
2018-05-01T21:10:57.823Z,97231.34
2018-05-01T21:13:25.341Z,97241.63
2018-05-01T21:15:52.829Z,97241.28
2018-05-01T21:18:20.333Z,97237.86
2018-05-01T21:20:47.823Z,97235.58
2018-05-01T21:23:15.338Z,97236.80
2018-05-01T21:25:42.850Z,97240.33
2018-05-01T21:28:10.353Z,97063.33
2018-05-01T21:30:37.840Z,97243.39
2018-05-01T21:33:05.359Z,97248.48
2018-05-01T21:35:32.843Z,97240.26
2018-05-01T21:38:00.377Z,97241.61
2018-05-01T21:40:27.890Z,97238.55
2018-05-01T21:42:55.444Z,97242.37
2018-05-01T21:45:22.905Z,97256.74
2018-05-01T21:47:50.472Z,97259.70
2018-05-01T21:50:19.006Z,97260.48
2018-05-01T21:52:46.506Z,97256.50
2018-05-01T21:55:14.019Z,97263.99
2018-05-01T21:57:41.505Z,97263.88
2018-05-01T22:00:09.005Z,97263.75
2018-05-01T22:02:36.496Z,97264.09
2018-05-01T22:05:04.014Z,97268.38
2018-05-01T22:07:31.813Z,97273.02
2018-05-01T22:10:00.294Z,97269.12
2018-05-01T22:12:27.834Z,97264.83
2018-05-01T22:14:55.337Z,97269.01
2018-05-01T22:17:22.825Z,97277.06
2018-05-01T22:19:50.331Z,97275.05
2018-05-01T22:22:17.811Z,97273.47
2018-05-01T22:24:45.323Z,97271.18
2018-05-01T22:27:12.821Z,97265.69
2018-05-01T22:29:40.386Z,97263.22
2018-05-01T22:32:07.877Z,97253.03
2018-05-01T22:34:35.385Z,97250.13
2018-05-01T22:37:02.898Z,97254.77
2018-05-01T22:39:30.391Z,97254.00
2018-05-01T22:41:57.903Z,97249.69
2018-05-01T22:44:25.402Z,97242.91
2018-05-01T22:46:52.906Z,97244.75
2018-05-01T22:49:20.399Z,97239.56
2018-05-01T22:51:47.910Z,97237.94
2018-05-01T22:54:15.430Z,97234.95
2018-05-01T22:56:42.930Z,97232.22
2018-05-01T22:59:10.422Z,97234.42
2018-05-01T23:01:37.925Z,97235.59
2018-05-01T23:04:05.408Z,97237.77
2018-05-01T23:06:32.909Z,97238.59
2018-05-01T23:09:00.442Z,97235.97
2018-05-01T23:11:28.025Z,97225.94
2018-05-01T23:13:55.455Z,97232.53
2018-05-01T23:16:22.949Z,97234.16
2018-05-01T23:18:50.446Z,97237.92
2018-05-01T23:21:17.952Z,97244.80
2018-05-01T23:23:45.435Z,97246.53
2018-05-01T23:26:12.945Z,97242.08
2018-05-01T23:28:40.444Z,97236.40
2018-05-01T23:31:07.941Z,97238.91
2018-05-01T23:33:35.447Z,97244.96
2018-05-01T23:36:02.939Z,97242.34
2018-05-01T23:38:30.513Z,97244.63
2018-05-01T23:40:57.941Z,97242.94
2018-05-01T23:43:26.274Z,97236.38
2018-05-01T23:45:53.783Z,97231.91
2018-05-01T23:48:21.295Z,97227.49
2018-05-01T23:50:48.781Z,97234.89
2018-05-01T23:53:16.302Z,97233.42
2018-05-01T23:55:43.781Z,97223.55
2018-05-01T23:58:11.281Z,97233.50
